Etusivu
METAR-TAF:

METAR-TAF

Lentoasemat :

Bigfork Municipal Airport

Bigfork, Minnesota, Yhdysvallat

Leveyspiiri: 47-46-58N, Pituuspiiri: 093-39-01W, korkeus merenpinnasta: 411 m

Tämänhetkinen sää

Tämä raportti tehtiin 12 minuuttia sitten, kello 07.14 UTC
Tuuli 7 kn etelästä
Lämpötila -8°C
Kosteus 79%
Ilmanpaine 1008 hPa
Näkyvyys: 16.1 km
Hajonneita pilviä 11000 ft:n korkeudessa

METAR: KFOZ 220714Z AUTO 19007KT 10SM BKN110 M08/M11 A2977 RMK AO2

Aika: 01:26 (07:26 UTC)


TAF: puuttuu

Säähavainnot ja -ennusteet yli 4000 lentoasemalta (METAR- ja TAF-raportit).

Käytössä olevat sääasemat on merkitty karttaan keltaisilla ja punaisilla pisteillä.

Aseta hiiri pisteen päälle nähdäksesi sääaseman nimen.

Klikkaa sitten nähdäksesi säähavainnot ja -ennusteet.

Kartan vaihtaminen: klikkaa mustalla rastilla varustettuja vihreitä pisteitä, niin voit zoomata sisään; viivalla varustettua vihreää pistettä, niin voit zoomata ulos tai vihreitä nuolia, niin pääset viereisille kartoille.


METAR-TAF: